Independence of the Seas — C6WW4 — position and weather

sailwx.info

Track history (hours):
 
Tides and Currents Weather Stations Pressure Air Temp Water Temp Dewpoint Dewpoint Depression Visibility Wind Speed Wind Dir Waves Ship Positions

Independence of the Seas

Last reported at 2014-Oct-31 18:33 UTC. Time now 2014-Oct-31 23:08 UTC.
Position N 50°13' W 002°45'.

Length 339 m; draft 8.8 m.

Type: Passenger vessel. MMSI: 309374000.

Date/timePositionNaut miles runAvg speedWind from/ knotsBaromVisibWave heightAir tempDewpointWater temp
2014-Oct-31 18:33N 50°13' W 002°45'1111.3
2014-Oct-31 17:33N 50°13' W 002°28'1111.4
2014-Oct-31 16:33N 50°14' W 002°10'29 9.5
2014-Oct-31 13:31N 50°17' W 001°25'12 8.5
2014-Oct-31 12:08N 50°20' W 001°07'6 8.6
2014-Oct-31 11:29N 50°21' W 000°59'9 9.9
2014-Oct-31 10:34N 50°24' W 000°45'1111.1
2014-Oct-31 09:33N 50°27' W 000°28'1111.4
2014-Oct-31 08:33N 50°30' W 000°11'1212.1
2014-Oct-31 07:33N 50°34' E 000°07'1211.8
2014-Oct-31 06:33N 50°37' E 000°25'1111.0
2014-Oct-31 05:33N 50°42' E 000°41'1010.5
2014-Oct-31 04:33N 50°48' E 000°55'1010.3
2014-Oct-31 03:33N 50°54' E 001°07'1010.1
2014-Oct-31 02:33N 51°01' E 001°19'1010.5
2014-Oct-31 01:34N 51°07' E 001°33'1211.6
2014-Oct-31 00:33N 51°15' E 001°47'1211.9
2014-Oct-30 23:33N 51°24' E 001°58'1110.6
2014-Oct-30 22:33N 51°21' E 002°14'1010.2
2014-Oct-30 21:33N 51°23' E 002°30'1110.3
2014-Oct-30 20:31N 51°25' E 002°47'1415.0
2014-Oct-30 19:33N 51°23' E 003°10'3 3.1
2014-Oct-30 18:33N 51°20' E 003°13'0 0.0
2014-Oct-30 17:33N 51°20' E 003°13'0 0.0
2014-Oct-30 16:33N 51°20' E 003°13'0 0.0
2014-Oct-30 15:33N 51°20' E 003°13'0 0.0
2014-Oct-30 14:33N 51°20' E 003°13'0 0.0
2014-Oct-30 13:33N 51°20' E 003°13'0 0.0
2014-Oct-30 12:33N 51°20' E 003°13'0 0.0
2014-Oct-30 11:33N 51°20' E 003°13'0 0.0
2014-Oct-30 10:33N 51°20' E 003°13'0 0.0
2014-Oct-30 09:33N 51°20' E 003°12'10 9.6
2014-Oct-30 08:33N 51°25' E 002°59'1312.5
2014-Oct-30 07:33N 51°22' E 002°39'1413.7
2014-Oct-30 06:33N 51°18' E 002°18'1515.4
2014-Oct-30 05:33N 51°12' E 001°56'1717.0
2014-Oct-30 04:33N 51°00' E 001°36'1916.8
2014-Oct-30 03:24N 50°43' E 001°23'9115.6
2014-Oct-29 21:33N 49°32' W 000°06'9 8.2
2014-Oct-29 20:28N 49°29' E 000°06'0 0.0
2014-Oct-29 19:16N 49°29' E 000°06'0 0.0
2014-Oct-29 18:31N 49°29' E 000°06'0 0.0
2014-Oct-29 17:31N 49°29' E 000°06'0 0.0
2014-Oct-29 16:28N 49°29' E 000°06'0 0.0
2014-Oct-29 15:31N 49°29' E 000°06'0 0.0
2014-Oct-29 14:22N 49°29' E 000°06'0 0.0
2014-Oct-29 13:31N 49°29' E 000°06'0 0.0
2014-Oct-29 12:31N 49°29' E 000°06'0 0.0
2014-Oct-29 11:31N 49°29' E 000°06'0 0.0
2014-Oct-29 10:28N 49°29' E 000°06'0 0.0
2014-Oct-29 09:31N 49°29' E 000°06'0 0.0
2014-Oct-29 08:31N 49°29' E 000°06'0 0.0
2014-Oct-29 07:31N 49°29' E 000°06'0 0.5
2014-Oct-29 06:34N 49°29' E 000°07'10 9.7
2014-Oct-29 05:33N 49°32' W 000°07'69 7.5
2014-Oct-28 20:22N 50°33' W 000°55'5 6.6
2014-Oct-28 19:33N 50°38' W 000°58'6 6.5
2014-Oct-28 18:33N 50°44' W 001°03'1010.3
2014-Oct-28 17:34N 50°48' W 001°18'7 0.6
2014-Oct-28 05:31N 50°54' W 001°25'5 5.6
2014-Oct-28 04:33N 50°50' W 001°19'1110.6
2014-Oct-28 03:34N 50°44' W 001°05'1110.7
2014-Oct-28 02:33N 50°34' W 001°00'6616.1
2014-Oct-27 22:27N 49°35' W 000°14'1315.1
2014-Oct-27 21:33N 49°29' E 000°05'1 1.2
2014-Oct-27 20:33N 49°29' E 000°06'0 0.0
2014-Oct-27 19:33N 49°29' E 000°06'0 0.0
2014-Oct-27 18:30N 49°29' E 000°06'0 0.0
2014-Oct-27 17:33N 49°29' E 000°06'0 0.0
2014-Oct-27 16:33N 49°29' E 000°06'0 0.0
2014-Oct-27 15:30N 49°29' E 000°06'0 0.0
2014-Oct-27 14:33N 49°29' E 000°06'0 0.0
2014-Oct-27 13:33N 49°29' E 000°06'0 0.0
2014-Oct-27 12:33N 49°29' E 000°06'0 0.0
2014-Oct-27 11:33N 49°29' E 000°06'0 0.0
2014-Oct-27 10:33N 49°29' E 000°06'0 0.0
2014-Oct-27 09:30N 49°29' E 000°06'0 0.0
2014-Oct-27 08:33N 49°29' E 000°06'0 0.0
2014-Oct-27 07:30N 49°29' E 000°06'0 0.4
2014-Oct-27 06:33N 49°29' E 000°07'9 8.5
2014-Oct-27 05:33N 49°31' W 000°06'1313.0
2014-Oct-27 04:33N 49°38' W 000°23'1413.9
2014-Oct-27 03:33N 49°52' W 000°21'4816.1
2014-Oct-27 00:33N 50°32' E 000°20'1917.7
2014-Oct-26 23:29N 50°40' E 000°47'3618.5
2014-Oct-26 21:33N 51°03' E 001°31'2120.8
2014-Oct-26 20:33N 51°19' E 001°53'1515.3
2014-Oct-26 19:34N 51°21' E 002°17'1716.4
2014-Oct-26 18:33N 51°22' E 002°44'1514.5
2014-Oct-26 17:29N 51°24' E 003°08'4 0.4
2014-Oct-26 07:25N 51°21' E 003°12'910.7
2014-Oct-26 06:33N 51°25' E 002°59'1311.9
2014-Oct-26 05:30N 51°22' E 002°40'1212.8
2014-Oct-26 04:33N 51°19' E 002°21'1414.4
2014-Oct-26 03:33N 51°12' E 002°01'1514.5
2014-Oct-26 02:33N 51°03' E 001°42'10413.1
2014-Oct-25 18:33N 50°38' W 000°58'1211.6
2014-Oct-25 17:33N 50°46' W 001°12'9 8.8
2014-Oct-25 16:33N 50°52' W 001°22'3 1.9
2014-Oct-25 15:08N 50°54' W 001°25'0 0.0
2014-Oct-25 11:32N 50°54' W 001°25'0 0.0
2014-Oct-25 10:08N 50°54' W 001°25'0 0.0
2014-Oct-25 04:33N 50°54' W 001°25'7 7.0
2014-Oct-25 03:33N 50°49' W 001°17'1111.1
2014-Oct-25 02:33N 50°43' W 001°02'1211.8
2014-Oct-25 01:33N 50°32' W 001°04'  
2014-Oct-22 15:29N 39°33' W 012°11'5518.8
2014-Oct-22 12:33N 38°45' W 012°45'1918.6
2014-Oct-22 11:33N 38°29' W 012°56'  
Track history (hours):
 
Tides and Currents Weather Stations Pressure Air Temp Water Temp Dewpoint Dewpoint Depression Visibility Wind Speed Wind Dir Waves Ship Positions

Independence of the Seas

Last reported at 2014-Oct-31 18:33 UTC. Time now 2014-Oct-31 23:08 UTC.
Position N 50°13' W 002°45'.

Length 339 m; draft 8.8 m.

Type: Passenger vessel. MMSI: 309374000.

Date/timePositionNaut miles runAvg speedWind from/ knotsBaromVisibWave heightAir tempDewpointWater temp
2014-Oct-31 18:33N 50°13' W 002°45'1111.3
2014-Oct-31 17:33N 50°13' W 002°28'1111.4
2014-Oct-31 16:33N 50°14' W 002°10'29 9.5
2014-Oct-31 13:31N 50°17' W 001°25'12 8.5
2014-Oct-31 12:08N 50°20' W 001°07'6 8.6
2014-Oct-31 11:29N 50°21' W 000°59'9 9.9
2014-Oct-31 10:34N 50°24' W 000°45'1111.1
2014-Oct-31 09:33N 50°27' W 000°28'1111.4
2014-Oct-31 08:33N 50°30' W 000°11'1212.1
2014-Oct-31 07:33N 50°34' E 000°07'1211.8
2014-Oct-31 06:33N 50°37' E 000°25'1111.0
2014-Oct-31 05:33N 50°42' E 000°41'1010.5
2014-Oct-31 04:33N 50°48' E 000°55'1010.3
2014-Oct-31 03:33N 50°54' E 001°07'1010.1
2014-Oct-31 02:33N 51°01' E 001°19'1010.5
2014-Oct-31 01:34N 51°07' E 001°33'1211.6
2014-Oct-31 00:33N 51°15' E 001°47'1211.9
2014-Oct-30 23:33N 51°24' E 001°58'1110.6
2014-Oct-30 22:33N 51°21' E 002°14'1010.2
2014-Oct-30 21:33N 51°23' E 002°30'1110.3
2014-Oct-30 20:31N 51°25' E 002°47'1415.0
2014-Oct-30 19:33N 51°23' E 003°10'3 3.1
2014-Oct-30 18:33N 51°20' E 003°13'0 0.0
2014-Oct-30 17:33N 51°20' E 003°13'0 0.0
2014-Oct-30 16:33N 51°20' E 003°13'0 0.0
2014-Oct-30 15:33N 51°20' E 003°13'0 0.0
2014-Oct-30 14:33N 51°20' E 003°13'0 0.0
2014-Oct-30 13:33N 51°20' E 003°13'0 0.0
2014-Oct-30 12:33N 51°20' E 003°13'0 0.0
2014-Oct-30 11:33N 51°20' E 003°13'0 0.0
2014-Oct-30 10:33N 51°20' E 003°13'0 0.0
2014-Oct-30 09:33N 51°20' E 003°12'10 9.6
2014-Oct-30 08:33N 51°25' E 002°59'1312.5
2014-Oct-30 07:33N 51°22' E 002°39'1413.7
2014-Oct-30 06:33N 51°18' E 002°18'1515.4
2014-Oct-30 05:33N 51°12' E 001°56'1717.0
2014-Oct-30 04:33N 51°00' E 001°36'1916.8
2014-Oct-30 03:24N 50°43' E 001°23'9115.6
2014-Oct-29 21:33N 49°32' W 000°06'9 8.2
2014-Oct-29 20:28N 49°29' E 000°06'0 0.0
2014-Oct-29 19:16N 49°29' E 000°06'0 0.0
2014-Oct-29 18:31N 49°29' E 000°06'0 0.0
2014-Oct-29 17:31N 49°29' E 000°06'0 0.0
2014-Oct-29 16:28N 49°29' E 000°06'0 0.0
2014-Oct-29 15:31N 49°29' E 000°06'0 0.0
2014-Oct-29 14:22N 49°29' E 000°06'0 0.0
2014-Oct-29 13:31N 49°29' E 000°06'0 0.0
2014-Oct-29 12:31N 49°29' E 000°06'0 0.0
2014-Oct-29 11:31N 49°29' E 000°06'0 0.0
2014-Oct-29 10:28N 49°29' E 000°06'0 0.0
2014-Oct-29 09:31N 49°29' E 000°06'0 0.0
2014-Oct-29 08:31N 49°29' E 000°06'0 0.0
2014-Oct-29 07:31N 49°29' E 000°06'0 0.5
2014-Oct-29 06:34N 49°29' E 000°07'10 9.7
2014-Oct-29 05:33N 49°32' W 000°07'69 7.5
2014-Oct-28 20:22N 50°33' W 000°55'5 6.6
2014-Oct-28 19:33N 50°38' W 000°58'6 6.5
2014-Oct-28 18:33N 50°44' W 001°03'1010.3
2014-Oct-28 17:34N 50°48' W 001°18'7 0.6
2014-Oct-28 05:31N 50°54' W 001°25'5 5.6
2014-Oct-28 04:33N 50°50' W 001°19'1110.6
2014-Oct-28 03:34N 50°44' W 001°05'1110.7
2014-Oct-28 02:33N 50°34' W 001°00'6616.1
2014-Oct-27 22:27N 49°35' W 000°14'1315.1
2014-Oct-27 21:33N 49°29' E 000°05'1 1.2
2014-Oct-27 20:33N 49°29' E 000°06'0 0.0
2014-Oct-27 19:33N 49°29' E 000°06'0 0.0
2014-Oct-27 18:30N 49°29' E 000°06'0 0.0
2014-Oct-27 17:33N 49°29' E 000°06'0 0.0
2014-Oct-27 16:33N 49°29' E 000°06'0 0.0
2014-Oct-27 15:30N 49°29' E 000°06'0 0.0
2014-Oct-27 14:33N 49°29' E 000°06'0 0.0
2014-Oct-27 13:33N 49°29' E 000°06'0 0.0
2014-Oct-27 12:33N 49°29' E 000°06'0 0.0
2014-Oct-27 11:33N 49°29' E 000°06'0 0.0
2014-Oct-27 10:33N 49°29' E 000°06'0 0.0
2014-Oct-27 09:30N 49°29' E 000°06'0 0.0
2014-Oct-27 08:33N 49°29' E 000°06'0 0.0
2014-Oct-27 07:30N 49°29' E 000°06'0 0.4
2014-Oct-27 06:33N 49°29' E 000°07'9 8.5
2014-Oct-27 05:33N 49°31' W 000°06'1313.0
2014-Oct-27 04:33N 49°38' W 000°23'1413.9
2014-Oct-27 03:33N 49°52' W 000°21'4816.1
2014-Oct-27 00:33N 50°32' E 000°20'1917.7
2014-Oct-26 23:29N 50°40' E 000°47'3618.5
2014-Oct-26 21:33N 51°03' E 001°31'2120.8
2014-Oct-26 20:33N 51°19' E 001°53'1515.3
2014-Oct-26 19:34N 51°21' E 002°17'1716.4
2014-Oct-26 18:33N 51°22' E 002°44'1514.5
2014-Oct-26 17:29N 51°24' E 003°08'4 0.4
2014-Oct-26 07:25N 51°21' E 003°12'910.7
2014-Oct-26 06:33N 51°25' E 002°59'1311.9
2014-Oct-26 05:30N 51°22' E 002°40'1212.8
2014-Oct-26 04:33N 51°19' E 002°21'1414.4
2014-Oct-26 03:33N 51°12' E 002°01'1514.5
2014-Oct-26 02:33N 51°03' E 001°42'10413.1
2014-Oct-25 18:33N 50°38' W 000°58'1211.6
2014-Oct-25 17:33N 50°46' W 001°12'9 8.8
2014-Oct-25 16:33N 50°52' W 001°22'3 1.9
2014-Oct-25 15:08N 50°54' W 001°25'0 0.0
2014-Oct-25 11:32N 50°54' W 001°25'0 0.0
2014-Oct-25 10:08N 50°54' W 001°25'0 0.0
2014-Oct-25 04:33N 50°54' W 001°25'7 7.0
2014-Oct-25 03:33N 50°49' W 001°17'1111.1
2014-Oct-25 02:33N 50°43' W 001°02'1211.8
2014-Oct-25 01:33N 50°32' W 001°04'  
2014-Oct-22 15:29N 39°33' W 012°11'5518.8
2014-Oct-22 12:33N 38°45' W 012°45'1918.6
2014-Oct-22 11:33N 38°29' W 012°56'  

Dump ship's entire track history